Time;durP1;ratioP1;P1;durP2;ratioP2;P2;SDS_P1;SDS_P2;PMS_P1;PMS_P2;Temp;Humidity;BMP_temperature;BMP_pressure;BME280_temperature;BME280_humidity;BME280_pressure;Samples;Min_cycle;Max_cycle;Signal;HPM_P1;HPM_P2
2022/09/11 00:01:54;;;;;;;19.87;15.93;;;-40.00;99.90;;;;;;5095660;28;20269;-70
2022/09/11 00:04:19;;;;;;;20.00;15.67;;;-40.00;99.90;;;;;;5096899;28;20190;-72
2022/09/11 00:06:45;;;;;;;21.73;15.43;;;-40.00;99.90;;;;;;5096496;28;20254;-70
2022/09/11 00:09:12;;;;;;;21.63;13.97;;;-40.00;99.90;;;;;;5096833;28;20171;-70
2022/09/11 00:11:40;;;;;;;24.77;16.87;;;-40.00;99.90;;;;;;5096679;28;20472;-71
2022/09/11 00:14:09;;;;;;;20.47;16.40;;;-40.00;99.90;;;;;;5095829;28;20472;-70
2022/09/11 00:16:38;;;;;;;17.00;15.27;;;-40.00;99.90;;;;;;5096555;28;20208;-70
2022/09/11 00:19:10;;;;;;;18.17;16.37;;;-40.00;99.90;;;;;;5096523;28;20171;-70
2022/09/11 00:21:36;;;;;;;20.80;15.73;;;-40.00;99.90;;;;;;5096184;28;20166;-69
2022/09/11 00:24:02;;;;;;;21.20;15.80;;;-40.00;99.90;;;;;;5096558;28;20466;-71
2022/09/11 00:26:28;;;;;;;18.07;16.17;;;-40.00;99.90;;;;;;5096371;28;20190;-72
2022/09/11 00:28:54;;;;;;;25.60;18.07;;;-40.00;99.90;;;;;;5096138;28;20573;-69
2022/09/11 00:31:24;;;;;;;31.20;16.57;;;-40.00;99.90;;;;;;5096283;28;20198;-71
2022/09/11 00:33:50;;;;;;;20.37;15.80;;;-40.00;99.90;;;;;;5096362;28;20210;-69
2022/09/11 00:36:25;;;;;;;19.73;15.93;;;-40.00;99.90;;;;;;5096009;28;20179;-70
2022/09/11 00:38:51;;;;;;;24.60;16.23;;;-40.00;99.90;;;;;;5096256;28;20196;-71
2022/09/11 00:41:31;;;;;;;17.67;15.70;;;-40.00;99.90;;;;;;5096151;28;20574;-71
2022/09/11 00:44:01;;;;;;;25.90;17.87;;;-40.00;99.90;;;;;;5096311;28;20276;-70
2022/09/11 00:46:49;;;;;;;28.60;15.33;;;-40.00;99.90;;;;;;5096095;28;20289;-72
2022/09/11 00:49:23;;;;;;;20.70;16.90;;;-40.00;99.90;;;;;;5095876;28;20174;-69
2022/09/11 00:51:55;;;;;;;25.83;18.23;;;-40.00;99.90;;;;;;5095855;28;20193;-71
2022/09/11 00:54:26;;;;;;;24.10;17.27;;;-40.00;99.90;;;;;;5096061;28;20177;-70
2022/09/11 00:56:53;;;;;;;20.30;17.07;;;-40.00;99.90;;;;;;5095845;28;20191;-70
2022/09/11 00:59:24;;;;;;;25.27;17.57;;;-40.00;99.90;;;;;;5095992;28;20196;-71
2022/09/11 01:01:50;;;;;;;24.30;18.40;;;-40.00;99.90;;;;;;5095908;28;20265;-71
2022/09/11 01:04:16;;;;;;;20.53;18.27;;;-40.00;99.90;;;;;;5095659;28;20202;-73
2022/09/11 01:06:42;;;;;;;20.43;17.30;;;-40.00;99.90;;;;;;5097084;28;20253;-71
2022/09/11 01:09:08;;;;;;;29.50;18.33;;;-40.00;99.90;;;;;;5102613;28;20200;-70
2022/09/11 01:11:40;;;;;;;20.87;18.60;;;-40.00;99.90;;;;;;5102635;28;20174;-71
2022/09/11 01:14:16;;;;;;;16.80;15.10;;;-40.00;99.90;;;;;;5102637;28;20212;-71
2022/09/11 01:16:52;;;;;;;20.67;16.13;;;-40.00;99.90;;;;;;5102491;28;20178;-71
2022/09/11 01:19:51;;;;;;;15.60;13.77;;;-40.00;99.90;;;;;;5102416;28;20182;-72
2022/09/11 01:22:45;;;;;;;16.43;13.97;;;-40.00;99.90;;;;;;5099258;28;20186;-70
2022/09/11 01:25:19;;;;;;;17.27;15.47;;;-40.00;99.90;;;;;;5102357;28;20195;-70
2022/09/11 01:27:53;;;;;;;18.33;14.77;;;-40.00;99.90;;;;;;5102460;28;20165;-71
2022/09/11 01:30:26;;;;;;;14.43;13.03;;;-40.00;99.90;;;;;;5101442;28;20174;-72
2022/09/11 01:32:59;;;;;;;17.03;13.90;;;-40.00;99.90;;;;;;5101042;28;20186;-69
2022/09/11 01:35:51;;;;;;;17.20;15.50;;;-40.00;99.90;;;;;;5102697;28;20494;-69
2022/09/11 01:38:27;;;;;;;15.77;14.13;;;-40.00;99.90;;;;;;5099195;28;20633;-70
2022/09/11 01:41:06;;;;;;;18.77;16.13;;;-40.00;99.90;;;;;;5102411;28;20178;-71
2022/09/11 01:43:37;;;;;;;18.40;16.07;;;-40.00;99.90;;;;;;5102229;28;20174;-71
2022/09/11 01:46:06;;;;;;;20.00;16.67;;;-40.00;99.90;;;;;;5102312;28;20202;-70
2022/09/11 01:48:47;;;;;;;27.57;18.37;;;-40.00;99.90;;;;;;5101994;28;20170;-70
2022/09/11 01:51:22;;;;;;;19.10;15.13;;;-40.00;99.90;;;;;;5102068;28;20496;-70
2022/09/11 01:53:50;;;;;;;20.30;16.83;;;-40.00;99.90;;;;;;5102236;28;20166;-72
2022/09/11 01:56:25;;;;;;;17.03;15.00;;;-40.00;99.90;;;;;;5102174;28;20644;-71
2022/09/11 01:58:57;;;;;;;23.93;19.03;;;-40.00;99.90;;;;;;5102031;28;20611;-70
2022/09/11 02:01:29;;;;;;;19.73;16.17;;;-40.00;99.90;;;;;;5102011;28;20174;-68
2022/09/11 02:04:18;;;;;;;19.83;16.23;;;-40.00;99.90;;;;;;5101825;28;20179;-69
2022/09/11 02:06:49;;;;;;;18.40;15.43;;;-40.00;99.90;;;;;;5101003;28;20460;-70
2022/09/11 02:09:20;;;;;;;20.10;17.27;;;-40.00;99.90;;;;;;5100945;28;20174;-69
2022/09/11 02:11:48;;;;;;;22.87;15.37;;;-40.00;99.90;;;;;;5102084;28;20246;-69
2022/09/11 02:14:15;;;;;;;42.60;15.67;;;-40.00;99.90;;;;;;5101990;28;20174;-69
2022/09/11 02:16:50;;;;;;;20.63;14.37;;;-40.00;99.90;;;;;;5101777;28;20206;-72
2022/09/11 02:19:28;;;;;;;16.70;14.57;;;-40.00;99.90;;;;;;5098058;28;20174;-70
2022/09/11 02:21:56;;;;;;;19.50;15.80;;;-40.00;99.90;;;;;;5098822;28;20546;-71
2022/09/11 02:24:22;;;;;;;16.37;14.03;;;-40.00;99.90;;;;;;5098595;28;20251;-71
2022/09/11 02:26:57;;;;;;;19.33;15.97;;;-40.00;99.90;;;;;;5098833;28;20529;-70
2022/09/11 02:29:23;;;;;;;16.10;14.47;;;-40.00;99.90;;;;;;5098453;28;20193;-70
2022/09/11 02:31:51;;;;;;;19.53;15.33;;;-40.00;99.90;;;;;;5098387;28;20205;-71
2022/09/11 02:34:19;;;;;;;17.80;14.40;;;-40.00;99.90;;;;;;5098685;28;20231;-70
2022/09/11 02:36:50;;;;;;;18.47;15.10;;;-40.00;99.90;;;;;;5098576;28;20212;-72
2022/09/11 02:39:34;;;;;;;17.50;15.57;;;-40.00;99.90;;;;;;5098302;28;20198;-71
2022/09/11 02:42:06;;;;;;;19.53;15.70;;;-40.00;99.90;;;;;;5098338;28;20181;-69
2022/09/11 02:44:50;;;;;;;16.57;14.97;;;-40.00;99.90;;;;;;5098223;28;20173;-70
2022/09/11 02:47:46;;;;;;;15.77;13.80;;;-40.00;99.90;;;;;;5098351;28;20465;-70
2022/09/11 02:50:24;;;;;;;17.30;14.87;;;-40.00;99.90;;;;;;5098162;28;20201;-69
2022/09/11 02:53:19;;;;;;;17.27;15.27;;;-40.00;99.90;;;;;;5098294;28;20206;-71
2022/09/11 02:56:03;;;;;;;21.60;16.80;;;-40.00;99.90;;;;;;5094792;28;20195;-72
2022/09/11 02:58:37;;;;;;;20.87;15.63;;;-40.00;99.90;;;;;;5097975;28;20170;-72
2022/09/11 03:01:03;;;;;;;19.17;17.17;;;-40.00;99.90;;;;;;5096614;28;20248;-71
2022/09/11 03:03:41;;;;;;;19.17;15.57;;;-40.00;99.90;;;;;;5098109;28;20182;-70
2022/09/11 03:06:12;;;;;;;18.03;14.93;;;-40.00;99.90;;;;;;5097936;28;20289;-71
2022/09/11 03:08:39;;;;;;;20.37;16.10;;;-40.00;99.90;;;;;;5098063;28;20450;-78
2022/09/11 03:11:05;;;;;;;18.33;15.33;;;-40.00;99.90;;;;;;5098154;28;20485;-70
2022/09/11 03:13:32;;;;;;;18.07;14.90;;;-40.00;99.90;;;;;;5097953;28;20251;-77
2022/09/11 03:16:00;;;;;;;21.50;16.03;;;-40.00;99.90;;;;;;5096546;28;20199;-80
2022/09/11 03:18:25;;;;;;;22.13;15.40;;;-40.00;99.90;;;;;;5098035;28;20261;-76
2022/09/11 03:20:51;;;;;;;21.93;16.23;;;-40.00;99.90;;;;;;5097392;28;20308;-70
2022/09/11 03:23:17;;;;;;;19.00;15.27;;;-40.00;99.90;;;;;;5097700;28;20175;-75
2022/09/11 03:25:42;;;;;;;16.80;14.77;;;-40.00;99.90;;;;;;5097418;28;20281;-74
2022/09/11 03:28:09;;;;;;;19.13;16.73;;;-40.00;99.90;;;;;;5097596;28;20182;-73
2022/09/11 03:30:35;;;;;;;16.57;14.87;;;-40.00;99.90;;;;;;5096243;28;20228;-70
2022/09/11 03:33:01;;;;;;;22.20;15.73;;;-40.00;99.90;;;;;;5097646;28;20178;-71
2022/09/11 03:35:27;;;;;;;21.63;14.47;;;-40.00;99.90;;;;;;5097239;28;20268;-72
2022/09/11 03:37:56;;;;;;;27.33;17.33;;;-40.00;99.90;;;;;;5097413;28;20270;-70
2022/09/11 03:40:22;;;;;;;29.40;19.10;;;-40.00;99.90;;;;;;5097068;28;20573;-73
2022/09/11 03:42:47;;;;;;;36.53;21.50;;;-40.00;99.90;;;;;;5097588;28;20184;-69
2022/09/11 03:45:14;;;;;;;37.63;22.57;;;-40.00;99.90;;;;;;5096686;28;20646;-71
2022/09/11 03:47:40;;;;;;;45.93;21.93;;;-40.00;99.90;;;;;;5097260;28;20167;-73
2022/09/11 03:50:07;;;;;;;39.20;22.57;;;-40.00;99.90;;;;;;5096992;28;20224;-73
2022/09/11 03:52:33;;;;;;;70.80;26.43;;;-40.00;99.90;;;;;;5097151;28;20244;-73
2022/09/11 03:54:59;;;;;;;38.90;23.97;;;-40.00;99.90;;;;;;5096971;28;20178;-76
2022/09/11 03:57:25;;;;;;;43.00;23.87;;;-40.00;99.90;;;;;;5096954;28;20171;-74
2022/09/11 03:59:50;;;;;;;40.90;23.07;;;-40.00;99.90;;;;;;5096479;28;20217;-78
2022/09/11 04:02:17;;;;;;;36.37;20.80;;;-40.00;99.90;;;;;;5096746;28;20574;-73
2022/09/11 04:04:43;;;;;;;35.07;22.33;;;-40.00;99.90;;;;;;5096859;28;20195;-73
2022/09/11 04:07:09;;;;;;;41.90;22.50;;;-40.00;99.90;;;;;;5096827;28;20171;-75
2022/09/11 04:09:34;;;;;;;45.33;22.90;;;-40.00;99.90;;;;;;5096777;28;20170;-76
2022/09/11 04:12:01;;;;;;;52.77;22.23;;;-40.00;99.90;;;;;;5096798;28;20178;-76
2022/09/11 04:14:27;;;;;;;51.87;19.57;;;-40.00;99.90;;;;;;5096342;28;20582;-76
2022/09/11 04:16:53;;;;;;;41.70;19.77;;;-40.00;99.90;;;;;;5096608;28;20249;-78
2022/09/11 04:19:20;;;;;;;82.33;22.87;;;-40.00;99.90;;;;;;5096622;28;20162;-75
2022/09/11 04:21:46;;;;;;;71.07;20.33;;;-40.00;99.90;;;;;;5095365;28;20174;-78
2022/09/11 04:24:12;;;;;;;77.67;22.70;;;-40.00;99.90;;;;;;5096533;28;20170;-76
2022/09/11 04:26:38;;;;;;;73.53;20.03;;;-40.00;99.90;;;;;;5096328;28;20201;-76
2022/09/11 04:29:04;;;;;;;32.13;18.60;;;-40.00;99.90;;;;;;5096010;28;20189;-71
2022/09/11 04:31:29;;;;;;;43.90;18.93;;;-40.00;99.90;;;;;;5096279;28;20181;-74
2022/09/11 04:33:56;;;;;;;69.97;20.40;;;-40.00;99.90;;;;;;5096306;28;20249;-76
2022/09/11 04:36:23;;;;;;;44.13;20.77;;;-40.00;99.90;;;;;;5096335;28;20643;-77
2022/09/11 04:38:54;;;;;;;49.63;18.87;;;-40.00;99.90;;;;;;5096326;28;20163;-69
2022/09/11 04:41:20;;;;;;;40.27;18.30;;;-40.00;99.90;;;;;;5095527;28;20177;-79
2022/09/11 04:43:46;;;;;;;41.20;19.73;;;-40.00;99.90;;;;;;5096314;28;20174;-77
2022/09/11 04:46:14;;;;;;;62.00;20.60;;;-40.00;99.90;;;;;;5095894;28;20501;-69
2022/09/11 04:48:44;;;;;;;59.73;20.53;;;-40.00;99.90;;;;;;5096367;28;20191;-70
2022/09/11 04:51:10;;;;;;;33.90;18.50;;;-40.00;99.90;;;;;;5095903;28;20873;-72
2022/09/11 04:53:36;;;;;;;71.47;19.97;;;-40.00;99.90;;;;;;5096182;28;20171;-71
2022/09/11 04:56:08;;;;;;;75.30;22.53;;;-40.00;99.90;;;;;;5095626;28;20327;-69
2022/09/11 04:58:35;;;;;;;46.90;20.07;;;-40.00;99.90;;;;;;5094757;28;20202;-70
2022/09/11 05:01:12;;;;;;;59.13;20.83;;;-40.00;99.90;;;;;;5096024;28;20171;-69
2022/09/11 05:03:38;;;;;;;51.00;20.03;;;-40.00;99.90;;;;;;5096038;28;20258;-69
2022/09/11 05:06:09;;;;;;;47.80;20.20;;;-40.00;99.90;;;;;;5095957;28;20578;-71
2022/09/11 05:08:35;;;;;;;51.20;19.80;;;-40.00;99.90;;;;;;5095842;28;20246;-71
2022/09/11 05:11:04;;;;;;;45.40;20.17;;;-40.00;99.90;;;;;;5095592;28;20162;-71
2022/09/11 05:13:32;;;;;;;63.90;20.60;;;-40.00;99.90;;;;;;5095769;28;20163;-71
2022/09/11 05:16:06;;;;;;;42.30;18.77;;;-40.00;99.90;;;;;;5094802;28;20186;-71
2022/09/11 05:18:32;;;;;;;37.40;19.20;;;-40.00;99.90;;;;;;5095594;28;20577;-71
2022/09/11 05:21:03;;;;;;;28.47;18.77;;;-40.00;99.90;;;;;;5096019;28;20216;-70
2022/09/11 05:23:30;;;;;;;43.93;21.07;;;-40.00;99.90;;;;;;5095700;28;20244;-70
2022/09/11 05:25:57;;;;;;;86.40;23.60;;;-40.00;99.90;;;;;;5095550;28;20206;-72
2022/09/11 05:28:24;;;;;;;77.00;22.83;;;-40.00;99.90;;;;;;5095457;28;20171;-68
2022/09/11 05:30:51;;;;;;;98.27;25.83;;;-40.00;99.90;;;;;;5095634;28;20175;-68
2022/09/11 05:33:17;;;;;;;98.80;24.83;;;-40.00;99.90;;;;;;5095630;28;20174;-69
2022/09/11 05:35:43;;;;;;;106.80;25.13;;;-40.00;99.90;;;;;;5095682;28;20468;-70
2022/09/11 05:38:12;;;;;;;96.73;26.03;;;-40.00;99.90;;;;;;5093807;28;20223;-68
2022/09/11 05:40:48;;;;;;;136.13;27.63;;;-40.00;99.90;;;;;;5084455;28;20189;-68
2022/09/11 05:43:15;;;;;;;93.20;28.60;;;-40.00;99.90;;;;;;5095536;28;20486;-68
2022/09/11 05:45:41;;;;;;;99.67;26.57;;;-40.00;99.90;;;;;;5093416;28;20198;-70
2022/09/11 05:48:09;;;;;;;123.83;29.77;;;-40.00;99.90;;;;;;5094462;28;20193;-70
2022/09/11 05:50:35;;;;;;;116.97;29.93;;;-40.00;99.90;;;;;;5095284;28;20219;-69
2022/09/11 05:53:01;;;;;;;115.33;27.97;;;-40.00;99.90;;;;;;5095497;28;20166;-73
2022/09/11 05:55:27;;;;;;;139.73;30.00;;;-40.00;99.90;;;;;;5098663;28;20459;-71
2022/09/11 05:57:53;;;;;;;76.70;27.67;;;-40.00;99.90;;;;;;5099127;28;20185;-71
2022/09/11 06:00:20;;;;;;;166.73;33.47;;;-40.00;99.90;;;;;;5099019;28;20255;-68
2022/09/11 06:02:47;;;;;;;120.87;29.37;;;-40.00;99.90;;;;;;5098302;28;20189;-69
2022/09/11 06:05:14;;;;;;;76.00;26.90;;;-40.00;99.90;;;;;;5099441;28;20197;-68
2022/09/11 06:07:41;;;;;;;111.57;30.83;;;-40.00;99.90;;;;;;5099246;28;20258;-68
2022/09/11 06:10:07;;;;;;;130.07;29.93;;;-40.00;99.90;;;;;;5098909;28;20222;-69
2022/09/11 06:12:34;;;;;;;128.30;30.63;;;-40.00;99.90;;;;;;5098843;28;20623;-69
2022/09/11 06:15:00;;;;;;;136.50;33.20;;;-40.00;99.90;;;;;;5099212;28;20175;-70
2022/09/11 06:17:27;;;;;;;93.60;30.80;;;-40.00;99.90;;;;;;5098923;28;20553;-66
2022/09/11 06:19:54;;;;;;;168.23;33.00;;;-40.00;99.90;;;;;;5098667;28;20159;-70
2022/09/11 06:22:24;;;;;;;79.30;28.33;;;-40.00;99.90;;;;;;5098601;28;20182;-69
2022/09/11 06:24:50;;;;;;;86.87;29.53;;;-40.00;99.90;;;;;;5098427;28;20202;-69
2022/09/11 06:27:17;;;;;;;75.30;26.37;;;-40.00;99.90;;;;;;5098694;28;20249;-69
2022/09/11 06:29:45;;;;;;;77.90;27.63;;;-40.00;99.90;;;;;;5098343;28;20170;-73
2022/09/11 06:32:11;;;;;;;102.83;27.77;;;-40.00;99.90;;;;;;5098685;28;20175;-73
2022/09/11 06:34:36;;;;;;;41.33;26.60;;;-40.00;99.90;;;;;;5098324;28;20178;-69
2022/09/11 06:37:02;;;;;;;64.50;26.33;;;-40.00;99.90;;;;;;5098496;28;20167;-70
2022/09/11 06:39:28;;;;;;;55.63;27.23;;;-40.00;99.90;;;;;;5098083;28;20155;-73
2022/09/11 06:41:54;;;;;;;54.00;26.57;;;-40.00;99.90;;;;;;5091476;28;20182;-66
2022/09/11 06:44:20;;;;;;;64.83;26.57;;;-40.00;99.90;;;;;;5093832;28;20626;-72
2022/09/11 06:46:46;;;;;;;49.40;26.37;;;-40.00;99.90;;;;;;5096518;28;20206;-72
2022/09/11 06:49:11;;;;;;;46.93;26.90;;;-40.00;99.90;;;;;;5094331;28;20593;-71
2022/09/11 06:51:38;;;;;;;51.50;24.10;;;-40.00;99.90;;;;;;5095774;28;20190;-72
2022/09/11 06:54:05;;;;;;;43.47;25.87;;;-40.00;99.90;;;;;;5096504;28;20216;-67
2022/09/11 06:56:31;;;;;;;49.87;24.80;;;-40.00;99.90;;;;;;5095622;28;20174;-71
2022/09/11 06:58:57;;;;;;;35.80;21.50;;;-40.00;99.90;;;;;;5095809;28;20277;-68
2022/09/11 07:01:23;;;;;;;26.37;22.87;;;-40.00;99.90;;;;;;5096240;28;20179;-73
2022/09/11 07:03:52;;;;;;;23.57;20.47;;;-40.00;99.90;;;;;;5097511;28;20194;-74
2022/09/11 07:06:23;;;;;;;39.67;21.43;;;-40.00;99.90;;;;;;5096253;28;20232;-76
2022/09/11 07:08:51;;;;;;;26.40;21.77;;;-40.00;99.90;;;;;;5096204;28;20262;-76
2022/09/11 07:11:18;;;;;;;27.20;22.23;;;-40.00;99.90;;;;;;5084768;28;20242;-76
2022/09/11 07:13:44;;;;;;;28.47;23.27;;;-40.00;99.90;;;;;;5079507;28;20216;-74
2022/09/11 07:16:12;;;;;;;25.67;23.00;;;-40.00;99.90;;;;;;5091435;28;20258;-77
2022/09/11 07:18:42;;;;;;;24.87;22.23;;;-40.00;99.90;;;;;;5094808;28;20167;-77
2022/09/11 07:21:11;;;;;;;24.63;20.00;;;-40.00;99.90;;;;;;5077162;28;20175;-75
2022/09/11 07:23:38;;;;;;;26.13;21.33;;;-40.00;99.90;;;;;;5077120;28;20225;-72
2022/09/11 07:26:06;;;;;;;31.23;20.17;;;-40.00;99.90;;;;;;5077062;28;20482;-78
2022/09/11 07:28:32;;;;;;;21.93;19.60;;;-40.00;99.90;;;;;;5086412;28;20171;-76
2022/09/11 07:31:12;;;;;;;22.67;20.37;;;-40.00;99.90;;;;;;5077992;28;20180;-77
2022/09/11 07:33:41;;;;;;;24.23;20.73;;;-40.00;99.90;;;;;;5077096;28;20482;-73
2022/09/11 07:36:29;;;;;;;20.30;18.37;;;-40.00;99.90;;;;;;5076045;28;20183;-75
2022/09/11 07:38:56;;;;;;;21.93;19.60;;;-40.00;99.90;;;;;;5076930;28;20604;-72
2022/09/11 07:41:25;;;;;;;22.80;20.60;;;-40.00;99.90;;;;;;5076782;28;20340;-71
2022/09/11 07:43:53;;;;;;;21.90;19.57;;;-40.00;99.90;;;;;;5077195;28;20183;-76
2022/09/11 07:46:19;;;;;;;28.83;21.80;;;-40.00;99.90;;;;;;5090239;28;20199;-75
2022/09/11 07:48:44;;;;;;;29.50;20.00;;;-40.00;99.90;;;;;;5095123;28;20185;-72
2022/09/11 07:51:13;;;;;;;23.57;21.10;;;-40.00;99.90;;;;;;5094981;28;20194;-70
2022/09/11 07:53:47;;;;;;;23.73;20.43;;;-40.00;99.90;;;;;;5095673;28;20566;-73
2022/09/11 07:56:16;;;;;;;20.80;18.60;;;-40.00;99.90;;;;;;5095224;28;20625;-74
2022/09/11 07:58:42;;;;;;;21.87;19.53;;;-40.00;99.90;;;;;;5092124;28;20294;-73
2022/09/11 08:01:14;;;;;;;23.07;20.80;;;-40.00;99.90;;;;;;5095875;28;20175;-71
2022/09/11 08:03:41;;;;;;;22.73;20.70;;;-40.00;99.90;;;;;;5095797;28;20179;-74
2022/09/11 08:06:19;;;;;;;21.47;19.33;;;-40.00;99.90;;;;;;5093123;28;20229;-72
2022/09/11 08:08:46;;;;;;;24.67;21.10;;;-40.00;99.90;;;;;;5081204;28;20243;-80
2022/09/11 08:11:15;;;;;;;22.63;20.37;;;-40.00;99.90;;;;;;5090545;28;20589;-76
2022/09/11 08:13:41;;;;;;;22.43;20.13;;;-40.00;99.90;;;;;;5095067;28;20249;-80
2022/09/11 08:16:07;;;;;;;22.37;20.13;;;-40.00;99.90;;;;;;5095003;28;20605;-80
2022/09/11 08:18:35;;;;;;;22.00;19.80;;;-40.00;99.90;;;;;;5094963;28;20642;-74
2022/09/11 08:21:02;;;;;;;21.77;19.43;;;-40.00;99.90;;;;;;5091986;28;20178;-77
2022/09/11 08:23:30;;;;;;;22.07;19.97;;;-40.00;99.90;;;;;;5093798;28;20185;-73
2022/09/11 08:26:05;;;;;;;20.60;18.60;;;-40.00;99.90;;;;;;5094074;28;20199;-76
2022/09/11 08:28:33;;;;;;;20.17;18.23;;;-40.00;99.90;;;;;;5094312;28;20212;-78
2022/09/11 08:31:00;;;;;;;22.00;19.73;;;-40.00;99.90;;;;;;5094511;28;20216;-69
2022/09/11 08:33:26;;;;;;;20.27;18.37;;;-40.00;99.90;;;;;;5094764;28;20171;-72
2022/09/11 08:35:52;;;;;;;24.53;21.93;;;-40.00;99.90;;;;;;5094996;28;20597;-69
2022/09/11 08:38:18;;;;;;;20.00;18.00;;;-40.00;99.90;;;;;;5095013;28;20181;-78
2022/09/11 08:40:44;;;;;;;20.70;18.77;;;-40.00;99.90;;;;;;5093831;28;20257;-70
2022/09/11 08:43:19;;;;;;;20.30;18.17;;;-40.00;99.90;;;;;;5094586;28;20581;-80
2022/09/11 08:45:47;;;;;;;19.67;17.77;;;-40.00;99.90;;;;;;5091703;28;20262;-81
2022/09/11 08:48:13;;;;;;;24.17;21.60;;;-40.00;99.90;;;;;;5092316;28;20170;-71
2022/09/11 08:50:42;;;;;;;24.90;21.80;;;-40.00;99.90;;;;;;5094962;28;20254;-68
2022/09/11 08:53:15;;;;;;;22.47;20.23;;;-40.00;99.90;;;;;;5093773;28;20601;-68
2022/09/11 08:56:05;;;;;;;27.87;19.43;;;-40.00;99.90;;;;;;5092662;28;20201;-77
2022/09/11 08:58:49;;;;;;;20.70;17.90;;;-40.00;99.90;;;;;;5089094;28;20182;-78
2022/09/11 09:01:35;;;;;;;20.63;18.60;;;-40.00;99.90;;;;;;5088263;28;20232;-78
2022/09/11 09:04:26;;;;;;;18.60;16.87;;;-40.00;99.90;;;;;;5092101;28;20551;-80
2022/09/11 09:07:19;;;;;;;18.17;16.37;;;-40.00;99.90;;;;;;5091828;28;20621;-82
2022/09/11 09:10:03;;;;;;;18.33;16.40;;;-40.00;99.90;;;;;;5092083;28;20163;-85
2022/09/11 09:12:52;;;;;;;18.80;17.00;;;-40.00;99.90;;;;;;5095001;28;20555;-79
2022/09/11 09:15:23;;;;;;;20.90;18.90;;;-40.00;99.90;;;;;;5095351;28;20170;-74
2022/09/11 09:18:00;;;;;;;19.23;17.30;;;-40.00;99.90;;;;;;5093919;28;20220;-68
2022/09/11 09:20:35;;;;;;;20.40;18.13;;;-40.00;99.90;;;;;;5094932;28;20255;-78
2022/09/11 09:23:14;;;;;;;18.47;16.50;;;-40.00;99.90;;;;;;5093800;28;20172;-76
2022/09/11 09:25:41;;;;;;;22.77;18.60;;;-40.00;99.90;;;;;;5095367;28;20239;-82
2022/09/11 09:28:31;;;;;;;22.27;17.67;;;-40.00;99.90;;;;;;5097195;28;20285;-80
2022/09/11 09:30:59;;;;;;;21.87;19.67;;;-40.00;99.90;;;;;;5100242;28;20577;-75
2022/09/11 09:33:46;;;;;;;20.70;18.60;;;-40.00;99.90;;;;;;5099824;28;20208;-71
2022/09/11 09:36:26;;;;;;;17.83;16.13;;;-40.00;99.90;;;;;;5099252;28;20170;-77
2022/09/11 09:38:52;;;;;;;20.10;18.00;;;-40.00;99.90;;;;;;5099821;28;20170;-75
2022/09/11 09:41:43;;;;;;;20.73;16.83;;;-40.00;99.90;;;;;;5099822;28;20174;-72
2022/09/11 09:44:09;;;;;;;22.57;17.87;;;-40.00;99.90;;;;;;5099682;28;20194;-73
2022/09/11 09:46:45;;;;;;;19.57;17.57;;;-40.00;99.90;;;;;;5099383;28;20186;-81
2022/09/11 09:49:16;;;;;;;17.50;15.53;;;-40.00;99.90;;;;;;5099727;28;20557;-82
2022/09/11 09:51:42;;;;;;;16.90;15.20;;;-40.00;99.90;;;;;;5099398;28;20194;-84
2022/09/11 09:54:16;;;;;;;14.23;13.00;;;-40.00;99.90;;;;;;5099288;28;20163;-75
2022/09/11 09:56:52;;;;;;;13.03;11.77;;;-40.00;99.90;;;;;;5099347;28;20189;-76
2022/09/11 09:59:34;;;;;;;14.73;13.37;;;-40.00;99.90;;;;;;5098953;28;20276;-70
2022/09/11 10:02:00;;;;;;;14.93;13.57;;;-40.00;99.90;;;;;;5099029;28;20175;-70
2022/09/11 10:04:29;;;;;;;16.00;14.40;;;-40.00;99.90;;;;;;5099215;28;20171;-74
2022/09/11 10:07:07;;;;;;;14.97;13.00;;;-40.00;99.90;;;;;;5099196;28;20601;-74
2022/09/11 10:09:33;;;;;;;13.20;12.00;;;-40.00;99.90;;;;;;5099585;28;20190;-73
2022/09/11 10:12:11;;;;;;;13.17;11.87;;;-40.00;99.90;;;;;;5099411;28;20532;-81
2022/09/11 10:14:58;;;;;;;15.63;14.03;;;-40.00;99.90;;;;;;5099278;28;20167;-81
2022/09/11 10:17:32;;;;;;;15.10;13.70;;;-40.00;99.90;;;;;;5099269;28;20171;-74
2022/09/11 10:20:21;;;;;;;15.27;13.80;;;-40.00;99.90;;;;;;5099061;28;20163;-85
2022/09/11 10:22:49;;;;;;;15.77;13.63;;;-40.00;99.90;;;;;;5099481;28;20166;-77
2022/09/11 10:25:18;;;;;;;14.13;12.83;;;-40.00;99.90;;;;;;5099220;28;20191;-75
2022/09/11 10:28:01;;;;;;;13.40;12.20;;;-40.00;99.90;;;;;;5098965;28;20216;-85
2022/09/11 10:30:36;;;;;;;12.93;11.83;;;-40.00;99.90;;;;;;5099087;28;20170;-75
2022/09/11 10:33:30;;;;;;;15.13;13.00;;;-40.00;99.90;;;;;;5102872;28;20174;-79
2022/09/11 10:35:58;;;;;;;11.63;10.53;;;-40.00;99.90;;;;;;5099606;28;20249;-76
2022/09/11 10:38:44;;;;;;;12.47;11.33;;;-40.00;99.90;;;;;;5100471;28;20167;-78
2022/09/11 10:41:18;;;;;;;11.50;10.43;;;-40.00;99.90;;;;;;5100403;28;20162;-79
2022/09/11 10:43:55;;;;;;;15.57;12.80;;;-40.00;99.90;;;;;;5098578;28;20163;-85
2022/09/11 10:46:27;;;;;;;13.33;12.10;;;-40.00;99.90;;;;;;5097887;28;20230;-75
2022/09/11 10:48:56;;;;;;;11.97;10.77;;;-40.00;99.90;;;;;;5097388;28;20167;-74
2022/09/11 10:51:25;;;;;;;10.97;9.87;;;-40.00;99.90;;;;;;5098148;28;20239;-85
2022/09/11 10:54:15;;;;;;;9.47;8.57;;;-40.00;99.90;;;;;;5097948;28;20166;-76
2022/09/11 10:57:12;;;;;;;8.97;8.27;;;-40.00;99.90;;;;;;5089740;28;20227;-71
2022/09/11 10:59:56;;;;;;;10.03;9.33;;;-40.00;99.90;;;;;;5099984;28;20274;-77
2022/09/11 11:02:47;;;;;;;8.97;8.27;;;-40.00;99.90;;;;;;5099764;28;20258;-86
2022/09/11 11:05:34;;;;;;;7.33;6.83;;;-40.00;99.90;;;;;;5088038;28;20210;-84
2022/09/11 11:08:00;;;;;;;7.73;7.13;;;-40.00;99.90;;;;;;5095921;28;20163;-86
2022/09/11 11:10:39;;;;;;;7.90;7.10;;;-40.00;99.90;;;;;;5096165;28;20175;-78
2022/09/11 11:13:51;;;;;;;9.17;8.27;;;-40.00;99.90;;;;;;5095726;28;20168;-72
2022/09/11 11:16:23;;;;;;;9.43;8.63;;;-40.00;99.90;;;;;;5084190;28;20183;-69
2022/09/11 11:18:52;;;;;;;8.80;8.10;;;-40.00;99.90;;;;;;5094972;28;20177;-81
2022/09/11 11:21:43;;;;;;;8.07;7.47;;;-40.00;99.90;;;;;;5088081;28;20167;-75
2022/09/11 11:24:17;;;;;;;8.47;7.83;;;-40.00;99.90;;;;;;5084166;28;20155;-86
2022/09/11 11:27:03;;;;;;;10.27;9.40;;;-40.00;99.90;;;;;;5087074;28;20226;-79
2022/09/11 11:29:52;;;;;;;7.50;6.80;;;-40.00;99.90;;;;;;5084840;28;20168;-77
2022/09/11 11:32:42;;;;;;;7.67;7.07;;;-40.00;99.90;;;;;;5083138;28;20176;-85
2022/09/11 11:35:26;;;;;;;8.23;6.97;;;-40.00;99.90;;;;;;5085978;28;20178;-89
2022/09/11 11:38:02;;;;;;;7.73;7.03;;;-40.00;99.90;;;;;;5079841;28;20178;-88
2022/09/11 11:40:39;;;;;;;6.50;5.93;;;-40.00;99.90;;;;;;5078682;28;20250;-87
2022/09/11 11:43:16;;;;;;;5.73;5.30;;;-40.00;99.30;;;;;;5077262;28;20171;-80
2022/09/11 11:45:44;;;;;;;6.53;6.03;;;-40.00;97.80;;;;;;5077089;28;20483;-82
2022/09/11 11:48:16;;;;;;;5.50;4.67;;;-40.00;94.40;;;;;;5078639;28;20862;-87
2022/09/11 11:50:49;;;;;;;8.03;4.40;;;-40.00;94.80;;;;;;5076691;28;20225;-85
2022/09/11 11:53:34;;;;;;;5.63;4.83;;;-40.00;89.20;;;;;;5077733;28;20202;-85
2022/09/11 11:56:04;;;;;;;4.93;4.53;;;-40.00;87.20;;;;;;5077890;28;20486;-83
2022/09/11 11:58:38;;;;;;;5.13;4.83;;;-40.00;85.50;;;;;;5077494;28;20167;-79
2022/09/11 12:01:11;;;;;;;4.90;4.60;;;-40.00;79.80;;;;;;5077977;28;20201;-82
2022/09/11 12:03:49;;;;;;;6.40;5.80;;;-40.00;82.30;;;;;;5079603;28;20239;-81
2022/09/11 12:06:15;;;;;;;5.17;4.80;;;-40.00;92.00;;;;;;5079984;28;20225;-80
2022/09/11 12:08:46;;;;;;;6.40;5.70;;;-40.00;92.40;;;;;;5080637;28;20156;-82
2022/09/11 12:11:17;;;;;;;5.90;5.60;;;-40.00;93.90;;;;;;5078707;28;20171;-85
2022/09/11 12:13:46;;;;;;;7.30;6.67;;;-40.00;95.20;;;;;;5077307;28;20168;-78
2022/09/11 12:16:19;;;;;;;5.93;5.43;;;-40.00;95.30;;;;;;5076806;28;20300;-71
2022/09/11 12:19:18;;;;;;;6.67;6.10;;;-40.00;95.80;;;;;;5076442;28;20164;-78
2022/09/11 12:21:53;;;;;;;8.60;5.87;;;-40.00;97.20;;;;;;5076960;28;20202;-80
2022/09/11 12:24:49;;;;;;;7.37;6.67;;;-40.00;98.60;;;;;;5077925;28;20155;-82
2022/09/11 12:27:33;;;;;;;7.23;6.63;;;-40.00;98.70;;;;;;5077538;28;20168;-73
2022/09/11 12:30:17;;;;;;;6.80;6.37;;;-40.00;98.50;;;;;;5083479;28;20171;-85
2022/09/11 12:33:00;;;;;;;6.53;6.03;;;-40.00;95.40;;;;;;5082784;28;20179;-78
2022/09/11 12:35:37;;;;;;;5.67;5.37;;;-40.00;97.10;;;;;;5080478;28;20174;-83
2022/09/11 12:38:16;;;;;;;6.37;6.00;;;-40.00;93.80;;;;;;5079022;28;20204;-78
2022/09/11 12:40:58;;;;;;;6.43;5.83;;;-40.00;96.90;;;;;;5076736;28;20178;-76
2022/09/11 12:43:46;;;;;;;9.23;7.17;;;-40.00;97.90;;;;;;5076684;28;20167;-80
2022/09/11 12:46:33;;;;;;;7.37;6.70;;;-40.00;97.20;;;;;;5076514;28;20191;-77